createdAt,value
2019-04-06T00:02:23.840Z,97.00
2019-04-06T00:04:51.104Z,96.80
2019-04-06T00:07:18.479Z,96.40
2019-04-06T00:09:45.677Z,96.70
2019-04-06T00:12:12.904Z,96.50
2019-04-06T00:14:40.113Z,96.70
2019-04-06T00:17:07.660Z,97.00
2019-04-06T00:19:34.860Z,96.70
2019-04-06T00:22:02.216Z,96.40
2019-04-06T00:24:29.469Z,96.30
2019-04-06T00:26:56.753Z,96.20
2019-04-06T00:29:24.004Z,96.10
2019-04-06T00:32:01.516Z,96.30
2019-04-06T00:34:28.785Z,96.40
2019-04-06T00:36:56.133Z,96.50
2019-04-06T00:39:23.616Z,96.30
2019-04-06T00:41:50.984Z,96.50
2019-04-06T00:44:18.180Z,96.50
2019-04-06T00:46:45.451Z,96.40
2019-04-06T00:49:12.789Z,96.30
2019-04-06T00:51:40.081Z,96.50
2019-04-06T00:54:07.432Z,96.30
2019-04-06T00:56:34.760Z,95.90
2019-04-06T00:59:02.024Z,96.60
2019-04-06T01:01:29.452Z,96.20
2019-04-06T01:03:57.015Z,96.60
2019-04-06T01:06:24.469Z,96.80
2019-04-06T01:08:51.781Z,96.80
2019-04-06T01:11:18.981Z,96.90
2019-04-06T01:13:47.008Z,96.80
2019-04-06T01:16:14.222Z,96.90
2019-04-06T01:18:41.572Z,96.80
2019-04-06T01:21:08.792Z,96.80
2019-04-06T01:23:36.019Z,96.50
2019-04-06T01:26:07.316Z,96.80
2019-04-06T01:28:33.584Z,96.50
2019-04-06T01:31:00.822Z,96.70
2019-04-06T01:33:28.140Z,97.00
2019-04-06T01:35:55.522Z,97.00
2019-04-06T01:38:22.744Z,97.40
2019-04-06T01:40:50.192Z,97.20
2019-04-06T01:43:17.935Z,96.60
2019-04-06T01:45:45.541Z,96.60
2019-04-06T01:48:13.033Z,96.60
2019-04-06T01:50:40.420Z,96.80
2019-04-06T01:53:07.933Z,97.30
2019-04-06T01:55:36.020Z,97.60
2019-04-06T01:58:03.390Z,98.00
2019-04-06T02:00:30.677Z,97.60
2019-04-06T02:02:58.477Z,97.60
2019-04-06T02:05:25.726Z,97.40
2019-04-06T02:07:52.952Z,97.40
2019-04-06T02:10:20.373Z,97.50
2019-04-06T02:12:47.700Z,97.70
2019-04-06T02:15:15.198Z,97.90
2019-04-06T02:17:42.430Z,97.50
2019-04-06T02:20:09.981Z,97.00
2019-04-06T02:22:37.177Z,96.80
2019-04-06T02:25:04.628Z,97.00
2019-04-06T02:27:33.529Z,97.20
2019-04-06T02:30:28.969Z,97.30
2019-04-06T02:33:14.043Z,97.20
2019-04-06T02:35:49.107Z,97.50
2019-04-06T02:38:36.124Z,98.00
2019-04-06T02:41:29.461Z,97.80
2019-04-06T02:43:56.762Z,97.60
2019-04-06T02:46:23.967Z,97.60
2019-04-06T02:48:51.434Z,97.50
2019-04-06T02:51:18.698Z,97.60
2019-04-06T02:53:46.872Z,97.60
2019-04-06T02:56:14.104Z,97.90
2019-04-06T02:58:41.605Z,98.00
2019-04-06T03:01:09.030Z,98.10
2019-04-06T03:03:36.462Z,98.10
2019-04-06T03:06:03.657Z,98.20
2019-04-06T03:08:30.911Z,98.50
2019-04-06T03:10:58.117Z,98.40
2019-04-06T03:13:25.553Z,98.60
2019-04-06T03:15:52.915Z,98.70
2019-04-06T03:18:20.154Z,98.80
2019-04-06T03:20:47.578Z,99.10
2019-04-06T03:23:14.768Z,99.10
2019-04-06T03:25:42.117Z,99.00
2019-04-06T03:28:09.919Z,99.10
2019-04-06T03:30:37.336Z,98.30
2019-04-06T03:33:04.894Z,98.10
2019-04-06T03:35:32.081Z,98.20
2019-04-06T03:37:59.328Z,98.30
2019-04-06T03:40:26.636Z,98.10
2019-04-06T03:42:53.856Z,98.20
2019-04-06T03:45:21.095Z,98.20
2019-04-06T03:47:48.789Z,98.20
2019-04-06T03:50:16.020Z,98.30
2019-04-06T03:52:43.253Z,98.10
2019-04-06T03:55:11.706Z,98.30
2019-04-06T03:57:39.028Z,98.20
2019-04-06T04:00:07.288Z,98.10
2019-04-06T04:02:34.510Z,98.10
2019-04-06T04:05:01.765Z,98.10
2019-04-06T04:07:29.116Z,98.20
2019-04-06T04:09:56.345Z,98.20
2019-04-06T04:12:23.720Z,98.10
2019-04-06T04:14:51.267Z,99.00
2019-04-06T04:17:18.520Z,98.60
2019-04-06T04:19:45.917Z,98.30
2019-04-06T04:22:13.488Z,98.40
2019-04-06T04:24:40.833Z,98.20
2019-04-06T04:27:08.083Z,99.10
2019-04-06T04:29:35.326Z,98.90
2019-04-06T04:32:02.780Z,98.80
2019-04-06T04:34:29.972Z,98.60
2019-04-06T04:36:57.293Z,98.50
2019-04-06T04:39:24.548Z,98.60
2019-04-06T04:41:53.782Z,98.30
2019-04-06T04:44:21.110Z,98.90
2019-04-06T04:46:48.514Z,98.40
2019-04-06T04:49:15.885Z,98.20
2019-04-06T04:51:43.545Z,98.40
2019-04-06T04:54:10.760Z,98.40
2019-04-06T04:56:38.057Z,98.80
2019-04-06T04:59:05.280Z,98.80
2019-04-06T05:01:32.712Z,98.60
2019-04-06T05:04:00.176Z,98.40
2019-04-06T05:06:27.622Z,98.50
2019-04-06T05:08:55.027Z,99.80
2019-04-06T05:11:22.308Z,99.70
2019-04-06T05:13:51.414Z,99.90
2019-04-06T05:16:18.795Z,99.90
2019-04-06T05:18:46.283Z,99.90
2019-04-06T05:21:13.639Z,99.30
2019-04-06T05:23:41.004Z,99.90
2019-04-06T05:26:08.650Z,99.20
2019-04-06T05:28:36.268Z,99.90
2019-04-06T05:31:03.955Z,99.90
2019-04-06T05:33:31.765Z,99.90
2019-04-06T05:35:58.984Z,99.90
2019-04-06T05:38:26.357Z,99.80
2019-04-06T05:40:53.744Z,99.90
2019-04-06T05:43:21.069Z,99.60
2019-04-06T05:45:48.416Z,99.80
2019-04-06T05:48:15.726Z,99.80
2019-04-06T05:50:43.404Z,99.40
2019-04-06T05:53:10.660Z,99.30
2019-04-06T05:55:38.040Z,99.20
2019-04-06T05:58:09.843Z,99.50
2019-04-06T06:00:35.108Z,98.80
2019-04-06T06:03:02.398Z,98.80
2019-04-06T06:05:29.766Z,99.10
2019-04-06T06:07:57.048Z,99.20
2019-04-06T06:10:24.460Z,98.50
2019-04-06T06:12:51.909Z,98.90
2019-04-06T06:15:19.505Z,98.40
2019-04-06T06:17:47.092Z,98.10
2019-04-06T06:20:14.329Z,97.60
2019-04-06T06:22:41.525Z,98.50
2019-04-06T06:25:09.400Z,98.70
2019-04-06T06:27:37.262Z,99.40
2019-04-06T06:30:05.323Z,98.50
2019-04-06T06:32:32.621Z,98.30
2019-04-06T06:34:59.858Z,98.70
2019-04-06T06:37:27.064Z,99.10
2019-04-06T06:39:54.455Z,99.10
2019-04-06T06:42:21.981Z,99.00
2019-04-06T06:44:49.392Z,99.00
2019-04-06T06:47:16.641Z,98.90
2019-04-06T06:49:44.207Z,98.70
2019-04-06T06:52:11.547Z,98.90
2019-04-06T06:54:38.872Z,98.70
2019-04-06T06:57:06.209Z,99.20
2019-04-06T06:59:34.516Z,99.30
2019-04-06T07:02:02.133Z,99.40
2019-04-06T07:04:29.637Z,99.60
2019-04-06T07:06:57.076Z,99.60
2019-04-06T07:09:24.283Z,98.90
2019-04-06T07:11:51.615Z,99.60
2019-04-06T07:14:19.107Z,99.20
2019-04-06T07:16:46.697Z,99.50
2019-04-06T07:19:14.061Z,99.30
2019-04-06T07:21:41.397Z,99.30
2019-04-06T07:24:08.973Z,99.30
2019-04-06T07:26:36.364Z,99.20
2019-04-06T07:29:03.831Z,99.20
2019-04-06T07:31:31.076Z,98.80
2019-04-06T07:33:58.536Z,98.80
2019-04-06T07:36:25.897Z,99.30
2019-04-06T07:38:53.294Z,99.40
2019-04-06T07:41:20.658Z,99.00
2019-04-06T07:43:48.156Z,98.30
2019-04-06T07:46:15.637Z,98.40
2019-04-06T07:48:42.864Z,98.60
2019-04-06T07:51:10.206Z,98.70
2019-04-06T07:53:37.636Z,98.90
2019-04-06T07:56:04.973Z,98.90
2019-04-06T07:58:32.300Z,98.90
2019-04-06T08:01:00.626Z,98.60
2019-04-06T08:03:28.117Z,98.70
2019-04-06T08:06:03.289Z,98.50
2019-04-06T08:08:31.881Z,98.30
2019-04-06T08:10:59.306Z,97.70
2019-04-06T08:13:26.673Z,97.70
2019-04-06T08:15:53.890Z,96.90
2019-04-06T08:18:21.272Z,97.80
2019-04-06T08:20:48.504Z,98.30
2019-04-06T08:23:15.892Z,98.70
2019-04-06T08:25:43.348Z,99.20
2019-04-06T08:28:10.632Z,99.50
2019-04-06T08:30:45.561Z,99.10
2019-04-06T08:33:07.236Z,99.20
2019-04-06T08:35:34.698Z,99.10
2019-04-06T08:38:02.270Z,98.90
2019-04-06T08:40:29.809Z,98.30
2019-04-06T08:42:57.216Z,97.10
2019-04-06T08:45:24.500Z,95.70
2019-04-06T08:47:52.054Z,95.90
2019-04-06T08:50:19.308Z,96.00
2019-04-06T08:52:46.736Z,95.40
2019-04-06T08:55:14.057Z,95.80
2019-04-06T08:57:41.289Z,95.70
2019-04-06T09:00:09.161Z,95.70
2019-04-06T09:02:37.331Z,96.30
2019-04-06T09:05:04.970Z,96.70
2019-04-06T09:07:32.348Z,96.20
2019-04-06T09:09:59.604Z,95.70
2019-04-06T09:12:26.976Z,96.00
2019-04-06T09:14:54.361Z,95.90
2019-04-06T09:17:22.024Z,95.70
2019-04-06T09:19:49.537Z,95.70
2019-04-06T09:22:16.724Z,95.30
2019-04-06T09:24:44.134Z,94.50
2019-04-06T09:27:11.596Z,94.60
2019-04-06T09:29:38.816Z,94.50
2019-04-06T09:32:06.288Z,94.90
2019-04-06T09:34:33.844Z,95.20
2019-04-06T09:37:01.431Z,95.10
2019-04-06T09:39:28.876Z,94.90
2019-04-06T09:41:56.374Z,93.90
2019-04-06T09:44:43.350Z,93.90
2019-04-06T09:47:19.355Z,93.50
2019-04-06T09:50:04.889Z,93.00
2019-04-06T09:52:38.740Z,93.50
2019-04-06T09:55:25.722Z,93.00
2019-04-06T09:58:27.742Z,93.40
2019-04-06T10:01:05.056Z,92.80
2019-04-06T10:03:55.377Z,92.60
2019-04-06T10:06:48.330Z,92.90
2019-04-06T10:09:50.491Z,91.80
2019-04-06T10:12:55.685Z,91.20
2019-04-06T10:15:41.029Z,90.10
2019-04-06T10:18:30.444Z,90.50
2019-04-06T10:21:09.337Z,91.00
2019-04-06T10:23:58.888Z,90.90
2019-04-06T10:26:45.910Z,91.50
2019-04-06T10:29:27.429Z,90.20
2019-04-06T10:32:20.445Z,90.00
2019-04-06T10:35:05.213Z,90.10
2019-04-06T10:37:39.591Z,89.40
2019-04-06T10:40:35.812Z,88.80
2019-04-06T10:43:14.450Z,88.00
2019-04-06T10:46:04.233Z,84.60
2019-04-06T10:48:58.967Z,85.40
2019-04-06T10:51:42.713Z,85.50
2019-04-06T10:54:25.617Z,83.50
2019-04-06T10:57:16.983Z,84.40
2019-04-06T11:00:02.248Z,82.40
2019-04-06T11:02:49.065Z,82.50
2019-04-06T11:05:27.488Z,84.30
2019-04-06T11:08:13.323Z,85.10
2019-04-06T11:11:02.477Z,85.10
2019-04-06T11:14:01.204Z,85.50
2019-04-06T11:16:41.062Z,84.30
2019-04-06T11:19:36.514Z,83.60
2019-04-06T11:22:35.922Z,86.00
2019-04-06T11:25:18.753Z,85.50
2019-04-06T11:28:08.220Z,82.00
2019-04-06T11:30:54.061Z,81.10
2019-04-06T11:33:33.585Z,80.60
2019-04-06T11:36:09.891Z,81.60
2019-04-06T11:38:50.544Z,80.20
2019-04-06T11:41:25.971Z,79.10
2019-04-06T11:44:18.733Z,79.80
2019-04-06T11:46:59.352Z,76.30
2019-04-06T11:49:54.603Z,73.20
2019-04-06T11:52:41.544Z,73.60
2019-04-06T11:55:27.253Z,75.70
2019-04-06T11:58:06.931Z,74.30
2019-04-06T12:00:52.732Z,75.60
2019-04-06T12:03:31.908Z,75.60
2019-04-06T12:06:28.962Z,77.60
2019-04-06T12:09:07.632Z,78.00
2019-04-06T12:11:50.841Z,76.80
2019-04-06T12:14:37.730Z,76.80
2019-04-06T12:17:24.700Z,77.50
2019-04-06T12:20:23.962Z,77.30
2019-04-06T12:23:23.019Z,77.90
2019-04-06T12:26:08.584Z,78.10
2019-04-06T12:28:54.142Z,77.90
2019-04-06T12:31:56.285Z,77.30
2019-04-06T12:34:44.812Z,76.10
2019-04-06T12:37:21.612Z,76.60
2019-04-06T12:40:14.240Z,75.00
2019-04-06T12:43:00.313Z,74.50
2019-04-06T12:45:46.133Z,74.80
2019-04-06T12:48:36.745Z,76.40
2019-04-06T12:51:22.978Z,77.60
2019-04-06T12:54:18.010Z,74.70
2019-04-06T12:57:00.896Z,75.40
2019-04-06T12:59:36.264Z,76.10
2019-04-06T13:02:26.137Z,74.10
2019-04-06T13:05:13.318Z,73.10
2019-04-06T13:07:58.317Z,73.60
2019-04-06T13:10:44.337Z,70.50
2019-04-06T13:13:23.000Z,72.50
2019-04-06T13:15:58.022Z,72.20
2019-04-06T13:18:50.924Z,70.80
2019-04-06T13:21:38.118Z,68.60
2019-04-06T13:24:13.920Z,68.10
2019-04-06T13:26:59.596Z,69.40
2019-04-06T13:29:43.298Z,70.70
2019-04-06T13:32:30.285Z,71.50
2019-04-06T13:35:07.991Z,69.90
2019-04-06T13:37:47.961Z,70.40
2019-04-06T13:40:33.377Z,71.00
2019-04-06T13:43:27.178Z,70.30
2019-04-06T13:46:14.822Z,68.40
2019-04-06T13:49:08.094Z,66.40
2019-04-06T13:51:44.526Z,69.20
2019-04-06T13:54:25.049Z,70.30
2019-04-06T13:57:21.178Z,70.90
2019-04-06T13:59:58.267Z,71.90
2019-04-06T14:02:40.380Z,70.80
2019-04-06T14:05:36.580Z,72.20
2019-04-06T14:08:29.157Z,71.50
2019-04-06T14:11:15.254Z,71.90
2019-04-06T14:14:05.080Z,73.00
2019-04-06T14:16:55.288Z,73.20
2019-04-06T14:19:48.309Z,73.50
2019-04-06T14:22:32.153Z,72.20
2019-04-06T14:25:15.940Z,72.00
2019-04-06T14:28:12.048Z,72.30
2019-04-06T14:30:51.216Z,70.70
2019-04-06T14:33:31.773Z,70.50
2019-04-06T14:36:09.393Z,70.00
2019-04-06T14:38:58.493Z,71.20
2019-04-06T14:41:45.493Z,70.10
2019-04-06T14:44:31.297Z,67.60
2019-04-06T14:47:06.226Z,69.20
2019-04-06T14:49:46.445Z,70.70
2019-04-06T14:52:39.522Z,72.30
2019-04-06T14:55:13.249Z,71.00
2019-04-06T14:58:06.057Z,70.90
2019-04-06T15:00:58.064Z,70.80
2019-04-06T15:03:43.529Z,70.80
2019-04-06T15:06:18.368Z,70.70
2019-04-06T15:09:03.129Z,70.20
2019-04-06T15:11:37.209Z,71.00
2019-04-06T15:14:30.303Z,72.20
2019-04-06T15:17:16.400Z,72.60
2019-04-06T15:20:11.840Z,72.80
2019-04-06T15:23:04.855Z,71.50
2019-04-06T15:25:54.641Z,71.10
2019-04-06T15:28:38.648Z,71.60
2019-04-06T15:31:25.787Z,70.50
2019-04-06T15:34:12.784Z,70.30
2019-04-06T15:36:55.786Z,70.20
2019-04-06T15:39:50.407Z,69.40
2019-04-06T15:42:26.529Z,69.40
2019-04-06T15:45:14.049Z,69.80
2019-04-06T15:48:04.164Z,69.30
2019-04-06T15:50:49.904Z,70.30
2019-04-06T15:53:30.173Z,69.30
2019-04-06T15:56:16.235Z,69.40
2019-04-06T15:59:07.264Z,70.00
2019-04-06T16:02:00.163Z,70.30
2019-04-06T16:04:41.813Z,70.20
2019-04-06T16:07:32.666Z,70.40
2019-04-06T16:10:23.033Z,71.10
2019-04-06T16:13:09.874Z,69.70
2019-04-06T16:15:55.192Z,69.80
2019-04-06T16:18:47.564Z,69.90
2019-04-06T16:21:37.603Z,69.40
2019-04-06T16:24:33.500Z,69.60
2019-04-06T16:27:29.436Z,69.80
2019-04-06T16:30:15.348Z,69.40
2019-04-06T16:33:11.566Z,69.80
2019-04-06T16:36:04.509Z,70.10
2019-04-06T16:38:50.785Z,69.60
2019-04-06T16:41:46.545Z,70.00
2019-04-06T16:44:25.276Z,70.40
2019-04-06T16:47:15.127Z,70.90
2019-04-06T16:50:08.219Z,70.70
2019-04-06T16:52:52.606Z,71.40
2019-04-06T16:55:41.016Z,70.60
2019-04-06T16:58:20.951Z,70.60
2019-04-06T17:01:06.522Z,70.70
2019-04-06T17:03:48.937Z,70.90
2019-04-06T17:06:32.939Z,71.10
2019-04-06T17:09:18.489Z,72.20
2019-04-06T17:12:14.199Z,71.70
2019-04-06T17:15:04.006Z,72.10
2019-04-06T17:17:46.702Z,72.60
2019-04-06T17:20:25.505Z,72.70
2019-04-06T17:23:02.692Z,72.50
2019-04-06T17:25:48.562Z,72.40
2019-04-06T17:28:41.328Z,72.40
2019-04-06T17:31:23.633Z,72.10
2019-04-06T17:33:59.016Z,73.10
2019-04-06T17:36:51.636Z,73.70
2019-04-06T17:39:25.789Z,73.80
2019-04-06T17:42:11.302Z,74.20
2019-04-06T17:45:10.496Z,73.90
2019-04-06T17:47:57.806Z,73.70
2019-04-06T17:50:47.724Z,73.10
2019-04-06T17:53:30.658Z,73.70
2019-04-06T17:56:35.524Z,73.50
2019-04-06T17:59:25.230Z,74.30
2019-04-06T18:02:15.569Z,74.60
2019-04-06T18:04:56.516Z,75.10
2019-04-06T18:07:42.728Z,75.50
2019-04-06T18:10:35.913Z,76.60
2019-04-06T18:13:10.186Z,78.30
2019-04-06T18:15:38.038Z,79.50
2019-04-06T18:18:05.623Z,79.70
2019-04-06T18:20:33.242Z,79.70
2019-04-06T18:23:00.680Z,79.70
2019-04-06T18:25:27.979Z,80.20
2019-04-06T18:27:55.289Z,80.50
2019-04-06T18:30:22.513Z,80.50
2019-04-06T18:33:01.208Z,80.60
2019-04-06T18:35:25.701Z,80.70
2019-04-06T18:38:04.150Z,81.00
2019-04-06T18:40:31.868Z,80.80
2019-04-06T18:42:59.068Z,80.90
2019-04-06T18:45:28.937Z,80.80
2019-04-06T18:47:56.141Z,81.30
2019-04-06T18:50:33.535Z,81.30
2019-04-06T18:52:53.115Z,81.50
2019-04-06T18:55:20.686Z,82.00
2019-04-06T18:57:48.028Z,82.90
2019-04-06T19:00:16.841Z,83.30
2019-04-06T19:02:44.628Z,83.00
2019-04-06T19:05:12.304Z,83.00
2019-04-06T19:07:39.712Z,83.20
2019-04-06T19:10:07.340Z,82.80
2019-04-06T19:12:35.221Z,83.30
2019-04-06T19:15:05.798Z,83.40
2019-04-06T19:17:33.605Z,83.40
2019-04-06T19:20:01.307Z,83.50
2019-04-06T19:22:28.805Z,83.60
2019-04-06T19:24:56.024Z,83.70
2019-04-06T19:27:23.256Z,83.30
2019-04-06T19:29:50.480Z,84.20
2019-04-06T19:32:18.007Z,83.80
2019-04-06T19:34:45.470Z,85.80
2019-04-06T19:37:13.612Z,85.50
2019-04-06T19:39:41.049Z,85.60
2019-04-06T19:42:09.253Z,87.10
2019-04-06T19:44:37.195Z,86.90
2019-04-06T19:47:04.524Z,85.70
2019-04-06T19:49:31.819Z,87.30
2019-04-06T19:51:59.184Z,88.30
2019-04-06T19:54:26.863Z,89.40
2019-04-06T19:56:54.169Z,88.20
2019-04-06T19:59:21.505Z,87.50
2019-04-06T20:01:49.193Z,88.00
2019-04-06T20:04:16.540Z,87.70
2019-04-06T20:06:43.906Z,87.60
2019-04-06T20:09:11.698Z,87.70
2019-04-06T20:11:38.971Z,88.10
2019-04-06T20:14:06.260Z,89.70
2019-04-06T20:16:34.035Z,88.30
2019-04-06T20:19:01.306Z,89.10
2019-04-06T20:21:28.626Z,90.20
2019-04-06T20:23:56.191Z,90.10
2019-04-06T20:26:23.869Z,90.00
2019-04-06T20:28:51.298Z,90.00
2019-04-06T20:31:18.526Z,90.20
2019-04-06T20:33:50.851Z,90.10
2019-04-06T20:36:14.861Z,90.30
2019-04-06T20:38:42.363Z,90.40
2019-04-06T20:41:09.820Z,90.20
2019-04-06T20:43:37.160Z,90.30
2019-04-06T20:46:04.437Z,90.30
2019-04-06T20:48:31.674Z,90.30
2019-04-06T20:50:59.335Z,90.50
2019-04-06T20:53:27.637Z,90.10
2019-04-06T20:55:55.257Z,90.40
2019-04-06T20:58:22.744Z,90.30
2019-04-06T21:00:50.492Z,90.10
2019-04-06T21:03:17.925Z,90.20
2019-04-06T21:05:45.357Z,90.20
2019-04-06T21:08:12.841Z,90.60
2019-04-06T21:10:40.695Z,90.50
2019-04-06T21:13:08.239Z,90.70
2019-04-06T21:15:35.857Z,90.60
2019-04-06T21:18:04.379Z,90.60
2019-04-06T21:20:31.945Z,90.90
2019-04-06T21:22:59.512Z,90.80
2019-04-06T21:25:27.566Z,91.00
2019-04-06T21:27:54.909Z,90.80
2019-04-06T21:30:22.452Z,91.00
2019-04-06T21:32:49.814Z,90.80
2019-04-06T21:35:17.069Z,91.40
2019-04-06T21:37:44.792Z,91.10
2019-04-06T21:40:12.477Z,91.30
2019-04-06T21:42:39.725Z,91.20
2019-04-06T21:45:07.861Z,91.30
2019-04-06T21:47:35.377Z,91.50
2019-04-06T21:50:03.498Z,92.00
2019-04-06T21:52:30.756Z,91.90
2019-04-06T21:54:57.997Z,91.80
2019-04-06T21:57:25.306Z,92.20
2019-04-06T21:59:52.567Z,92.30
2019-04-06T22:02:20.092Z,92.10
2019-04-06T22:04:47.447Z,92.00
2019-04-06T22:07:14.728Z,92.10
2019-04-06T22:09:42.363Z,92.00
2019-04-06T22:12:09.937Z,92.10
2019-04-06T22:14:37.376Z,92.20
2019-04-06T22:17:05.268Z,92.00
2019-04-06T22:19:33.524Z,91.90
2019-04-06T22:22:00.852Z,92.10
2019-04-06T22:24:30.501Z,92.00
2019-04-06T22:26:58.248Z,91.70
2019-04-06T22:29:25.712Z,91.90
2019-04-06T22:31:53.054Z,92.10
2019-04-06T22:34:20.256Z,92.00
2019-04-06T22:36:47.952Z,91.80
2019-04-06T22:39:15.401Z,92.10
2019-04-06T22:41:43.293Z,92.20
2019-04-06T22:44:11.088Z,92.10
2019-04-06T22:46:38.453Z,92.10
2019-04-06T22:49:05.836Z,92.40
2019-04-06T22:51:33.040Z,92.20
2019-04-06T22:54:00.269Z,92.20
2019-04-06T22:56:27.482Z,92.30
2019-04-06T22:58:54.697Z,92.30
2019-04-06T23:01:22.880Z,92.10
2019-04-06T23:04:07.634Z,92.10
2019-04-06T23:06:48.275Z,92.50
2019-04-06T23:09:15.590Z,92.20
2019-04-06T23:11:42.794Z,92.40
2019-04-06T23:14:10.100Z,92.90
2019-04-06T23:16:38.054Z,93.00
2019-04-06T23:19:05.449Z,93.10
2019-04-06T23:21:32.663Z,93.20
2019-04-06T23:23:59.877Z,93.40
2019-04-06T23:26:27.275Z,93.20
2019-04-06T23:28:55.027Z,92.70
2019-04-06T23:31:22.475Z,92.80
2019-04-06T23:33:49.865Z,92.90
2019-04-06T23:36:17.123Z,93.30
2019-04-06T23:38:44.418Z,93.50
2019-04-06T23:41:11.678Z,93.30
2019-04-06T23:43:38.949Z,93.70
2019-04-06T23:46:06.397Z,93.60
2019-04-06T23:48:33.772Z,93.50
2019-04-06T23:51:00.988Z,93.70
2019-04-06T23:53:28.302Z,94.20
2019-04-06T23:55:55.604Z,94.10
2019-04-06T23:58:23.159Z,94.20
